N968DT -KVUJ
Flight info
| Callsign | N968DT |
|---|---|
| Flight time | N/A |
| Altitude | VFR |
| Route | |
| Aircraft | DA62/L-DOV/C |
Departure
| Time | N/A |
|---|---|
| Airport | - |
Arrival
| Time | 2026-04-15 19:19 |
|---|---|
| Airport | Stanly County Airport (KVUJ) |
| Time | Latitude | Longitude | Altitude | Speed | Heading |
|---|---|---|---|---|---|
| 2026-04-15 18:51 | 35.19981 | -81.21644 | 3017 ft | 122 kts | 284° |
| 2026-04-15 18:51 | 35.20240 | -81.22659 | 3041 ft | 127 kts | 281° |
| 2026-04-15 18:52 | 35.20327 | -81.23325 | 3118 ft | 123 kts | 267° |
| 2026-04-15 18:52 | 35.20128 | -81.24309 | 3217 ft | 119 kts | 236° |
| 2026-04-15 18:52 | 35.19446 | -81.24834 | 3361 ft | 120 kts | 190° |
| 2026-04-15 18:52 | 35.18641 | -81.24576 | 3547 ft | 125 kts | 148° |
| 2026-04-15 18:53 | 35.18146 | -81.23712 | 3809 ft | 129 kts | 111° |
| 2026-04-15 18:53 | 35.18172 | -81.22594 | 4015 ft | 136 kts | 70° |
| 2026-04-15 18:53 | 35.18552 | -81.21539 | 4197 ft | 138 kts | 65° |
| 2026-04-15 18:53 | 35.18967 | -81.20476 | 4382 ft | 139 kts | 64° |
| 2026-04-15 18:54 | 35.19426 | -81.19407 | 4452 ft | 143 kts | 62° |
| 2026-04-15 18:54 | 35.19908 | -81.18343 | 4572 ft | 140 kts | 60° |
| 2026-04-15 18:54 | 35.20427 | -81.17310 | 4525 ft | 145 kts | 60° |
| 2026-04-15 18:54 | 35.20927 | -81.16212 | 4453 ft | 151 kts | 63° |
| 2026-04-15 18:55 | 35.21382 | -81.15050 | 4460 ft | 148 kts | 69° |
| 2026-04-15 18:55 | 35.21679 | -81.13872 | 4524 ft | 143 kts | 79° |
| 2026-04-15 18:55 | 35.21882 | -81.12672 | 4493 ft | 147 kts | 79° |
| 2026-04-15 18:55 | 35.22111 | -81.11433 | 4477 ft | 148 kts | 78° |
| 2026-04-15 18:56 | 35.22321 | -81.10213 | 4508 ft | 146 kts | 82° |
| 2026-04-15 18:56 | 35.22501 | -81.08965 | 4453 ft | 152 kts | 82° |
| 2026-04-15 18:56 | 35.22711 | -81.07670 | 4386 ft | 160 kts | 79° |
| 2026-04-15 18:56 | 35.22944 | -81.06361 | 4471 ft | 157 kts | 80° |
| 2026-04-15 18:57 | 35.23182 | -81.05033 | 4519 ft | 158 kts | 79° |
| 2026-04-15 18:57 | 35.23434 | -81.03718 | 4503 ft | 163 kts | 77° |
| 2026-04-15 18:57 | 35.23751 | -81.02377 | 4481 ft | 165 kts | 75° |
| 2026-04-15 18:57 | 35.24054 | -81.01008 | 4475 ft | 166 kts | 78° |
| 2026-04-15 18:58 | 35.24325 | -80.99648 | 4492 ft | 165 kts | 78° |
| 2026-04-15 18:58 | 35.24589 | -80.98277 | 4501 ft | 166 kts | 78° |
| 2026-04-15 18:58 | 35.24824 | -80.96882 | 4489 ft | 167 kts | 80° |
| 2026-04-15 18:58 | 35.25037 | -80.95506 | 4530 ft | 164 kts | 80° |
| 2026-04-15 18:59 | 35.25270 | -80.94132 | 4509 ft | 166 kts | 78° |
| 2026-04-15 18:59 | 35.25570 | -80.92752 | 4509 ft | 167 kts | 76° |
| 2026-04-15 18:59 | 35.25818 | -80.91382 | 4510 ft | 165 kts | 82° |
| 2026-04-15 18:59 | 35.26023 | -80.90015 | 4500 ft | 163 kts | 82° |
| 2026-04-15 19:00 | 35.26219 | -80.88621 | 4460 ft | 164 kts | 82° |
| 2026-04-15 19:00 | 35.26419 | -80.87266 | 4447 ft | 163 kts | 81° |
| 2026-04-15 19:00 | 35.26633 | -80.85889 | 4417 ft | 164 kts | 81° |
| 2026-04-15 19:00 | 35.26848 | -80.84528 | 4438 ft | 161 kts | 81° |
| 2026-04-15 19:01 | 35.27068 | -80.83195 | 4441 ft | 161 kts | 80° |
| 2026-04-15 19:01 | 35.27300 | -80.81836 | 4395 ft | 163 kts | 80° |
| 2026-04-15 19:01 | 35.27541 | -80.80492 | 4394 ft | 161 kts | 79° |
| 2026-04-15 19:01 | 35.27780 | -80.79170 | 4461 ft | 157 kts | 79° |
| 2026-04-15 19:02 | 35.28025 | -80.77867 | 4461 ft | 157 kts | 78° |
| 2026-04-15 19:02 | 35.28276 | -80.76559 | 4458 ft | 157 kts | 79° |
| 2026-04-15 19:02 | 35.28515 | -80.75268 | 4491 ft | 155 kts | 79° |
| 2026-04-15 19:02 | 35.28736 | -80.73956 | 4452 ft | 161 kts | 80° |
| 2026-04-15 19:03 | 35.28983 | -80.72600 | 4448 ft | 162 kts | 79° |
| 2026-04-15 19:03 | 35.29225 | -80.71255 | 4443 ft | 164 kts | 79° |
| 2026-04-15 19:03 | 35.29474 | -80.69903 | 4445 ft | 164 kts | 79° |
| 2026-04-15 19:03 | 35.29744 | -80.68547 | 4438 ft | 165 kts | 77° |
| 2026-04-15 19:04 | 35.30052 | -80.67210 | 4455 ft | 164 kts | 75° |
| 2026-04-15 19:04 | 35.30378 | -80.65873 | 4449 ft | 164 kts | 74° |
| 2026-04-15 19:04 | 35.30725 | -80.64533 | 4438 ft | 165 kts | 73° |
| 2026-04-15 19:04 | 35.31074 | -80.63185 | 4438 ft | 164 kts | 75° |
| 2026-04-15 19:05 | 35.31397 | -80.61855 | 4435 ft | 162 kts | 75° |
| 2026-04-15 19:05 | 35.31723 | -80.60528 | 4440 ft | 161 kts | 74° |
| 2026-04-15 19:05 | 35.32069 | -80.59233 | 4441 ft | 160 kts | 72° |
| 2026-04-15 19:05 | 35.32437 | -80.57945 | 4446 ft | 160 kts | 71° |
| 2026-04-15 19:06 | 35.32811 | -80.56670 | 4438 ft | 160 kts | 71° |
| 2026-04-15 19:06 | 35.33204 | -80.55399 | 4439 ft | 160 kts | 70° |
| 2026-04-15 19:06 | 35.33609 | -80.54126 | 4394 ft | 163 kts | 70° |
| 2026-04-15 19:06 | 35.34013 | -80.52821 | 4391 ft | 162 kts | 69° |
| 2026-04-15 19:07 | 35.34410 | -80.51552 | 4410 ft | 160 kts | 72° |
| 2026-04-15 19:07 | 35.34715 | -80.50234 | 4385 ft | 162 kts | 78° |
| 2026-04-15 19:07 | 35.34884 | -80.48870 | 4366 ft | 161 kts | 88° |
| 2026-04-15 19:07 | 35.34882 | -80.47492 | 4329 ft | 162 kts | 93° |
| 2026-04-15 19:08 | 35.34882 | -80.46127 | 4345 ft | 159 kts | 91° |
| 2026-04-15 19:08 | 35.34921 | -80.44772 | 4359 ft | 158 kts | 89° |
| 2026-04-15 19:08 | 35.34996 | -80.43431 | 4359 ft | 158 kts | 88° |
| 2026-04-15 19:08 | 35.35089 | -80.42095 | 4353 ft | 158 kts | 86° |
| 2026-04-15 19:09 | 35.35199 | -80.40759 | 4354 ft | 158 kts | 85° |
| 2026-04-15 19:09 | 35.35339 | -80.39439 | 4401 ft | 155 kts | 83° |
| 2026-04-15 19:09 | 35.35636 | -80.38161 | 4396 ft | 157 kts | 68° |
| 2026-04-15 19:09 | 35.36065 | -80.36912 | 4395 ft | 158 kts | 66° |
| 2026-04-15 19:10 | 35.36596 | -80.35746 | 4420 ft | 157 kts | 59° |
| 2026-04-15 19:10 | 35.37166 | -80.34602 | 4418 ft | 156 kts | 59° |
| 2026-04-15 19:10 | 35.37741 | -80.33473 | 4370 ft | 157 kts | 58° |
| 2026-04-15 19:10 | 35.38333 | -80.32344 | 4357 ft | 155 kts | 57° |
| 2026-04-15 19:11 | 35.38919 | -80.31233 | 4342 ft | 155 kts | 58° |
| 2026-04-15 19:11 | 35.39508 | -80.30119 | 4312 ft | 156 kts | 58° |
| 2026-04-15 19:11 | 35.40088 | -80.29017 | 4312 ft | 153 kts | 57° |
| 2026-04-15 19:11 | 35.40630 | -80.27869 | 4225 ft | 156 kts | 65° |
| 2026-04-15 19:12 | 35.41038 | -80.26646 | 4158 ft | 156 kts | 72° |
| 2026-04-15 19:12 | 35.41401 | -80.25375 | 4042 ft | 158 kts | 72° |
| 2026-04-15 19:12 | 35.41738 | -80.24099 | 3918 ft | 157 kts | 74° |
| 2026-04-15 19:12 | 35.42007 | -80.22813 | 3766 ft | 157 kts | 80° |
| 2026-04-15 19:13 | 35.42168 | -80.21505 | 3537 ft | 155 kts | 85° |
| 2026-04-15 19:13 | 35.42310 | -80.20201 | 3284 ft | 155 kts | 83° |
| 2026-04-15 19:13 | 35.42411 | -80.18890 | 2966 ft | 151 kts | 94° |
| 2026-04-15 19:13 | 35.42252 | -80.17630 | 2595 ft | 152 kts | 108° |
| 2026-04-15 19:14 | 35.41920 | -80.16441 | 2354 ft | 143 kts | 120° |
| 2026-04-15 19:14 | 35.41465 | -80.15424 | 2243 ft | 128 kts | 123° |
| 2026-04-15 19:14 | 35.41056 | -80.14502 | 2118 ft | 115 kts | 123° |
| 2026-04-15 19:14 | 35.40740 | -80.13640 | 1969 ft | 113 kts | 112° |
| 2026-04-15 19:15 | 35.40747 | -80.12710 | 1893 ft | 114 kts | 71° |
| 2026-04-15 19:15 | 35.41297 | -80.12043 | 1858 ft | 113 kts | 27° |
| 2026-04-15 19:15 | 35.41993 | -80.11549 | 1733 ft | 116 kts | 31° |
| 2026-04-15 19:15 | 35.42693 | -80.11060 | 1612 ft | 117 kts | 28° |
| 2026-04-15 19:16 | 35.43397 | -80.10577 | 1566 ft | 112 kts | 30° |
| 2026-04-15 19:16 | 35.44086 | -80.10117 | 1513 ft | 111 kts | 18° |
| 2026-04-15 19:16 | 35.44823 | -80.10126 | 1507 ft | 104 kts | 326° |
| 2026-04-15 19:16 | 35.45067 | -80.10828 | 1487 ft | 91 kts | 252° |
| 2026-04-15 19:17 | 35.44795 | -80.11480 | 1425 ft | 80 kts | 236° |
| 2026-04-15 19:17 | 35.44469 | -80.12013 | 1385 ft | 75 kts | 230° |
| 2026-04-15 19:17 | 35.44152 | -80.12520 | 1346 ft | 76 kts | 226° |
| 2026-04-15 19:17 | 35.43785 | -80.12993 | 1192 ft | 74 kts | 226° |
| 2026-04-15 19:18 | 35.43384 | -80.13377 | 1078 ft | 75 kts | 215° |
| 2026-04-15 19:18 | 35.42969 | -80.13775 | 900 ft | 75 kts | 213° |
| 2026-04-15 19:18 | 35.42156 | -80.14517 | 619 ft | 75 kts | 213° |
| 2026-04-15 19:19 | 35.41782 | -80.14851 | 562 ft | 53 kts | 220° |
| 2026-04-15 19:19 | 35.41549 | -80.15075 | 574 ft | 33 kts | 217° |
| 2026-04-15 19:19 | 35.41412 | -80.15200 | 581 ft | 15 kts | 211° |
| 2026-04-15 19:19 | 35.41347 | -80.15154 | 581 ft | 10 kts | 130° |
| 2026-04-15 19:20 | 35.41308 | -80.15092 | 579 ft | 8 kts | 127° |
| 2026-04-15 19:20 | 35.41278 | -80.15044 | 578 ft | 0 kts | 129° |
| 2026-04-15 19:20 | 35.41278 | -80.15043 | 578 ft | 1 kts | 130° |
| 2026-04-15 19:20 | 35.41245 | -80.15040 | 578 ft | 6 kts | 158° |
| 2026-04-15 19:21 | 35.41234 | -80.15022 | 578 ft | 0 kts | 128° |